createdAt,value
2022-10-04T00:01:51.676Z,9.86
2022-10-04T00:04:26.446Z,9.77
2022-10-04T00:07:01.187Z,9.78
2022-10-04T00:09:35.728Z,9.81
2022-10-04T00:12:06.052Z,9.85
2022-10-04T00:14:40.519Z,9.78
2022-10-04T00:17:12.529Z,9.85
2022-10-04T00:19:45.477Z,10.00
2022-10-04T00:22:18.944Z,9.95
2022-10-04T00:25:20.762Z,9.96
2022-10-04T00:28:26.068Z,10.01
2022-10-04T00:31:14.134Z,9.96
2022-10-04T00:33:44.090Z,10.02
2022-10-04T00:36:47.338Z,9.86
2022-10-04T00:39:27.433Z,9.67
2022-10-04T00:42:04.705Z,9.52
2022-10-04T00:44:40.363Z,9.47
2022-10-04T00:47:25.274Z,9.53
2022-10-04T00:50:00.331Z,9.70
2022-10-04T00:52:31.951Z,9.77
2022-10-04T00:55:03.964Z,9.74
2022-10-04T00:57:37.321Z,9.70
2022-10-04T01:00:12.177Z,9.70
2022-10-04T01:02:54.047Z,9.72
2022-10-04T01:05:27.482Z,9.86
2022-10-04T01:08:01.042Z,9.96
2022-10-04T01:10:33.336Z,9.93
2022-10-04T01:13:08.770Z,9.85
2022-10-04T01:15:44.303Z,9.81
2022-10-04T01:18:17.551Z,9.77
2022-10-04T01:20:55.466Z,9.74
2022-10-04T01:23:42.020Z,9.84
2022-10-04T01:26:41.192Z,9.84
2022-10-04T01:29:17.862Z,9.84
2022-10-04T01:31:48.082Z,9.96
2022-10-04T01:34:19.185Z,9.94
2022-10-04T01:36:48.746Z,9.88
2022-10-04T01:39:20.540Z,9.77
2022-10-04T01:41:54.148Z,9.72
2022-10-04T01:44:32.384Z,9.73
2022-10-04T01:47:03.836Z,9.82
2022-10-04T01:49:34.785Z,9.84
2022-10-04T01:52:09.031Z,9.92
2022-10-04T01:54:43.724Z,9.95
2022-10-04T01:57:17.023Z,10.02
2022-10-04T01:59:53.246Z,10.03
2022-10-04T02:02:29.077Z,9.99
2022-10-04T02:04:59.564Z,9.99
2022-10-04T02:07:32.524Z,9.94
2022-10-04T02:10:05.071Z,9.95
2022-10-04T02:12:35.166Z,9.93
2022-10-04T02:15:08.404Z,9.84
2022-10-04T02:17:43.987Z,9.81
2022-10-04T02:20:17.313Z,9.85
2022-10-04T02:22:46.844Z,9.90
2022-10-04T02:25:20.300Z,9.89
2022-10-04T02:27:48.749Z,9.87
2022-10-04T02:30:17.174Z,9.84
2022-10-04T02:33:00.555Z,9.80
2022-10-04T02:35:31.506Z,9.71
2022-10-04T02:38:11.887Z,9.68
2022-10-04T02:40:48.274Z,9.65
2022-10-04T02:43:21.630Z,9.66
2022-10-04T02:45:54.091Z,9.61
2022-10-04T02:48:37.053Z,9.56
2022-10-04T02:51:17.522Z,9.64
2022-10-04T02:53:54.789Z,9.69
2022-10-04T02:56:26.236Z,9.63
2022-10-04T02:58:55.618Z,9.69
2022-10-04T03:01:29.142Z,9.73
2022-10-04T03:03:58.578Z,9.73
2022-10-04T03:06:33.583Z,9.78
2022-10-04T03:09:04.832Z,9.88
2022-10-04T03:11:37.398Z,9.99
2022-10-04T03:14:09.341Z,9.98
2022-10-04T03:16:40.058Z,10.14
2022-10-04T03:19:10.066Z,10.17
2022-10-04T03:21:41.118Z,10.21
2022-10-04T03:24:16.734Z,10.13
2022-10-04T03:26:49.466Z,10.12
2022-10-04T03:29:20.554Z,10.12
2022-10-04T03:31:51.995Z,10.15
2022-10-04T03:34:22.836Z,10.07
2022-10-04T03:36:54.211Z,10.01
2022-10-04T03:39:30.082Z,10.05
2022-10-04T03:42:01.150Z,10.01
2022-10-04T03:44:29.449Z,10.02
2022-10-04T03:46:57.618Z,10.05
2022-10-04T03:49:34.256Z,10.17
2022-10-04T03:52:04.266Z,10.30
2022-10-04T03:54:34.534Z,10.39
2022-10-04T03:57:04.871Z,10.40
2022-10-04T03:59:34.608Z,10.30
2022-10-04T04:02:08.874Z,10.31
2022-10-04T04:04:44.672Z,10.32
2022-10-04T04:07:19.098Z,10.36
2022-10-04T04:09:52.282Z,10.43
2022-10-04T04:12:27.321Z,10.41
2022-10-04T04:14:57.057Z,10.35
2022-10-04T04:17:37.184Z,10.32
2022-10-04T04:20:14.599Z,10.31
2022-10-04T04:22:49.628Z,10.32
2022-10-04T04:25:19.429Z,10.37
2022-10-04T04:27:50.956Z,10.34
2022-10-04T04:30:20.073Z,10.38
2022-10-04T04:32:52.861Z,10.38
2022-10-04T04:35:26.561Z,10.43
2022-10-04T04:38:13.630Z,10.53
2022-10-04T04:40:42.426Z,10.76
2022-10-04T04:43:19.456Z,10.81
2022-10-04T04:46:08.482Z,10.71
2022-10-04T04:48:38.891Z,10.73
2022-10-04T04:51:07.677Z,10.75
2022-10-04T04:53:36.432Z,10.80
2022-10-04T04:56:10.488Z,10.63
2022-10-04T04:58:46.859Z,10.65
2022-10-04T05:01:22.897Z,10.65
2022-10-04T05:04:02.482Z,10.65
2022-10-04T05:06:32.226Z,10.69
2022-10-04T05:09:00.762Z,10.77
2022-10-04T05:11:31.407Z,10.82
2022-10-04T05:14:04.501Z,10.80
2022-10-04T05:16:38.955Z,10.83
2022-10-04T05:19:10.973Z,10.92
2022-10-04T05:21:43.015Z,10.99
2022-10-04T05:24:15.167Z,10.99
2022-10-04T05:26:44.618Z,11.09
2022-10-04T05:29:21.041Z,11.17
2022-10-04T05:31:56.310Z,11.15
2022-10-04T05:34:27.360Z,11.20
2022-10-04T05:37:11.628Z,11.24
2022-10-04T05:39:44.978Z,11.30
2022-10-04T05:42:21.543Z,11.39
2022-10-04T05:44:55.327Z,11.47
2022-10-04T05:47:26.848Z,11.41
2022-10-04T05:49:58.431Z,11.46
2022-10-04T05:52:31.327Z,11.38
2022-10-04T05:55:30.364Z,11.48
2022-10-04T05:58:18.624Z,11.53
2022-10-04T06:01:10.852Z,11.59
2022-10-04T06:03:52.768Z,11.65
2022-10-04T06:06:26.356Z,11.72
2022-10-04T06:09:08.719Z,11.81
2022-10-04T06:11:49.360Z,11.84
2022-10-04T06:14:41.363Z,11.88
2022-10-04T06:17:32.593Z,11.91
2022-10-04T06:20:23.588Z,11.98
2022-10-04T06:23:00.880Z,12.00
2022-10-04T06:25:35.774Z,12.06
2022-10-04T06:28:17.863Z,12.08
2022-10-04T06:31:05.581Z,12.12
2022-10-04T06:33:55.823Z,12.13
2022-10-04T06:36:44.781Z,12.15
2022-10-04T06:39:33.008Z,12.16
2022-10-04T06:42:23.785Z,12.17
2022-10-04T06:45:11.433Z,12.19
2022-10-04T06:47:55.814Z,12.21
2022-10-04T06:50:40.370Z,12.24
2022-10-04T06:53:23.083Z,12.26
2022-10-04T06:56:17.131Z,12.26
2022-10-04T06:59:05.781Z,12.32
2022-10-04T07:01:35.672Z,12.39
2022-10-04T07:04:19.352Z,12.39
2022-10-04T07:07:18.441Z,12.37
2022-10-04T07:09:48.243Z,12.50
2022-10-04T07:12:19.048Z,12.51
2022-10-04T07:14:50.920Z,12.53
2022-10-04T07:17:29.508Z,12.55
2022-10-04T07:20:00.617Z,12.63
2022-10-04T07:22:36.191Z,12.65
2022-10-04T07:25:16.081Z,12.73
2022-10-04T07:28:15.188Z,12.79
2022-10-04T07:30:48.801Z,12.88
2022-10-04T07:33:22.602Z,12.88
2022-10-04T07:36:00.151Z,12.85
2022-10-04T07:38:33.129Z,12.90
2022-10-04T07:41:12.059Z,12.94
2022-10-04T07:43:49.634Z,12.96
2022-10-04T07:46:25.783Z,13.02
2022-10-04T07:48:54.610Z,13.13
2022-10-04T07:51:31.182Z,13.17
2022-10-04T07:54:06.226Z,13.21
2022-10-04T07:56:40.869Z,13.28
2022-10-04T07:59:35.270Z,13.34
2022-10-04T08:02:16.453Z,13.42
2022-10-04T08:05:01.824Z,13.47
2022-10-04T08:07:47.052Z,13.55
2022-10-04T08:10:25.960Z,13.57
2022-10-04T08:13:06.175Z,13.58
2022-10-04T08:15:40.264Z,13.54
2022-10-04T08:18:24.720Z,13.63
2022-10-04T08:20:59.261Z,13.66
2022-10-04T08:23:57.283Z,13.67
2022-10-04T08:26:51.742Z,13.71
2022-10-04T08:29:43.865Z,13.71
2022-10-04T08:32:38.623Z,13.68
2022-10-04T08:35:31.423Z,13.66
2022-10-04T08:38:34.541Z,13.68
2022-10-04T08:41:48.415Z,13.69
2022-10-04T08:44:58.415Z,13.64
2022-10-04T08:48:01.560Z,13.63
2022-10-04T08:50:53.172Z,13.67
2022-10-04T08:53:54.621Z,13.70
2022-10-04T08:56:40.511Z,13.74
2022-10-04T08:59:43.820Z,13.80
2022-10-04T09:02:42.888Z,13.77
2022-10-04T09:05:43.538Z,13.83
2022-10-04T09:08:39.408Z,13.88
2022-10-04T09:11:31.603Z,13.89
2022-10-04T09:14:19.181Z,13.98
2022-10-04T09:16:48.837Z,13.98
2022-10-04T09:19:23.012Z,14.02
2022-10-04T09:22:19.299Z,14.12
2022-10-04T09:25:20.798Z,14.19
2022-10-04T09:28:11.112Z,14.23
2022-10-04T09:30:54.507Z,14.28
2022-10-04T09:33:46.766Z,14.31
2022-10-04T09:36:43.282Z,14.31
2022-10-04T09:39:44.090Z,14.37
2022-10-04T09:42:47.746Z,14.35
2022-10-04T09:45:45.412Z,14.40
2022-10-04T09:48:27.371Z,14.42
2022-10-04T09:51:26.294Z,14.44
2022-10-04T09:54:05.870Z,14.46
2022-10-04T09:56:56.867Z,14.44
2022-10-04T09:59:46.876Z,14.48
2022-10-04T10:02:47.099Z,14.49
2022-10-04T10:05:28.790Z,14.43
2022-10-04T10:08:10.021Z,14.54
2022-10-04T10:11:06.197Z,14.58
2022-10-04T10:14:00.549Z,14.58
2022-10-04T10:17:01.228Z,14.58
2022-10-04T10:19:51.232Z,14.60
2022-10-04T10:22:37.671Z,14.62
2022-10-04T10:25:17.450Z,14.78
2022-10-04T10:27:54.210Z,14.80
2022-10-04T10:30:27.481Z,14.83
2022-10-04T10:33:42.867Z,14.88
2022-10-04T10:36:49.775Z,14.90
2022-10-04T10:39:53.814Z,14.86
2022-10-04T10:43:04.278Z,14.87
2022-10-04T10:45:46.511Z,14.97
2022-10-04T10:48:24.366Z,14.90
2022-10-04T10:51:04.599Z,14.97
2022-10-04T10:54:13.456Z,15.10
2022-10-04T10:56:51.963Z,15.08
2022-10-04T10:59:54.186Z,15.19
2022-10-04T11:03:12.306Z,15.20
2022-10-04T11:06:16.297Z,15.14
2022-10-04T11:09:15.549Z,15.21
2022-10-04T11:12:12.476Z,15.24
2022-10-04T11:15:21.068Z,15.33
2022-10-04T11:18:29.392Z,15.31
2022-10-04T11:21:30.820Z,15.26
2022-10-04T11:24:35.300Z,15.32
2022-10-04T11:27:30.732Z,15.30
2022-10-04T11:30:25.430Z,15.25
2022-10-04T11:33:32.633Z,15.25
2022-10-04T11:36:31.405Z,15.25
2022-10-04T11:39:22.341Z,15.20
2022-10-04T11:41:57.411Z,15.21
2022-10-04T11:44:45.455Z,15.24
2022-10-04T11:47:27.957Z,15.22
2022-10-04T11:50:12.563Z,15.16
2022-10-04T11:53:19.287Z,15.11
2022-10-04T11:56:20.738Z,15.19
2022-10-04T11:59:11.855Z,15.23
2022-10-04T12:02:00.249Z,15.28
2022-10-04T12:04:53.683Z,15.29
2022-10-04T12:07:42.954Z,15.32
2022-10-04T12:10:25.864Z,15.31
2022-10-04T12:13:25.362Z,15.29
2022-10-04T12:16:28.986Z,15.28
2022-10-04T12:19:41.094Z,15.22
2022-10-04T12:22:30.483Z,15.15
2022-10-04T12:25:34.542Z,15.20
2022-10-04T12:28:37.945Z,15.24
2022-10-04T12:31:17.696Z,15.24
2022-10-04T12:33:54.118Z,15.27
2022-10-04T12:36:37.232Z,15.28
2022-10-04T12:39:19.170Z,15.29
2022-10-04T12:41:59.275Z,15.22
2022-10-04T12:44:43.202Z,15.19
2022-10-04T12:47:46.113Z,15.23
2022-10-04T12:50:26.427Z,15.28
2022-10-04T12:53:05.445Z,15.33
2022-10-04T12:56:01.381Z,15.31
2022-10-04T12:58:41.436Z,15.37
2022-10-04T13:01:23.199Z,15.57
2022-10-04T13:04:13.464Z,15.70
2022-10-04T13:06:53.199Z,15.74
2022-10-04T13:09:37.312Z,15.85
2022-10-04T13:12:19.208Z,15.90
2022-10-04T13:15:25.892Z,15.96
2022-10-04T13:18:06.355Z,15.95
2022-10-04T13:20:47.074Z,16.01
2022-10-04T13:23:27.037Z,16.03
2022-10-04T13:26:15.951Z,15.99
2022-10-04T13:28:53.925Z,15.96
2022-10-04T13:31:33.196Z,15.97
2022-10-04T13:34:13.316Z,15.83
2022-10-04T13:37:06.471Z,15.78
2022-10-04T13:40:05.073Z,15.78
2022-10-04T13:42:53.516Z,15.74
2022-10-04T13:45:35.662Z,15.62
2022-10-04T13:48:27.975Z,15.65
2022-10-04T13:51:16.398Z,15.61
2022-10-04T13:54:14.880Z,15.63
2022-10-04T13:57:16.898Z,15.64
2022-10-04T13:59:49.452Z,15.65
2022-10-04T14:02:49.802Z,15.64
2022-10-04T14:05:55.456Z,15.70
2022-10-04T14:08:57.729Z,15.75
2022-10-04T14:12:05.833Z,15.68
2022-10-04T14:15:01.783Z,15.70
2022-10-04T14:18:14.053Z,15.62
2022-10-04T14:21:19.567Z,15.53
2022-10-04T14:24:14.312Z,15.49
2022-10-04T14:27:10.787Z,15.46
2022-10-04T14:30:15.155Z,15.45
2022-10-04T14:33:16.447Z,15.41
2022-10-04T14:35:53.428Z,15.46
2022-10-04T14:39:02.667Z,15.46
2022-10-04T14:41:57.946Z,15.51
2022-10-04T14:44:55.837Z,15.55
2022-10-04T14:47:43.230Z,15.50
2022-10-04T14:50:29.767Z,15.50
2022-10-04T14:53:14.666Z,15.48
2022-10-04T14:56:10.653Z,15.42
2022-10-04T14:58:53.108Z,15.46
2022-10-04T15:01:23.012Z,15.46
2022-10-04T15:04:13.826Z,15.44
2022-10-04T15:06:49.726Z,15.47
2022-10-04T15:09:47.107Z,15.42
2022-10-04T15:13:09.419Z,15.43
2022-10-04T15:15:40.369Z,15.38
2022-10-04T15:18:23.505Z,15.43
2022-10-04T15:20:57.712Z,15.46
2022-10-04T15:23:35.742Z,15.44
2022-10-04T15:26:14.117Z,15.47
2022-10-04T15:29:07.571Z,15.45
2022-10-04T15:31:42.796Z,15.39
2022-10-04T15:34:27.562Z,15.44
2022-10-04T15:37:11.284Z,15.33
2022-10-04T15:39:58.256Z,15.41
2022-10-04T15:42:30.709Z,15.33
2022-10-04T15:45:26.859Z,15.29
2022-10-04T15:48:12.639Z,15.30
2022-10-04T15:50:55.753Z,15.38
2022-10-04T15:53:45.680Z,15.38
2022-10-04T15:56:37.694Z,15.30
2022-10-04T15:59:47.543Z,15.20
2022-10-04T16:02:51.346Z,15.20
2022-10-04T16:05:27.934Z,15.22
2022-10-04T16:08:19.411Z,15.23
2022-10-04T16:11:04.425Z,15.18
2022-10-04T16:13:43.688Z,15.18
2022-10-04T16:16:32.495Z,15.19
2022-10-04T16:19:18.502Z,15.16
2022-10-04T16:21:54.427Z,15.17
2022-10-04T16:24:41.494Z,15.13
2022-10-04T16:27:44.567Z,15.14
2022-10-04T16:30:28.193Z,15.14
2022-10-04T16:33:21.333Z,15.15
2022-10-04T16:36:03.292Z,15.14
2022-10-04T16:38:58.174Z,15.09
2022-10-04T16:41:37.560Z,15.07
2022-10-04T16:44:13.733Z,15.07
2022-10-04T16:46:45.245Z,15.10
2022-10-04T16:49:23.854Z,15.04
2022-10-04T16:52:09.520Z,15.00
2022-10-04T16:54:58.247Z,15.03
2022-10-04T16:57:27.875Z,15.02
2022-10-04T17:00:00.919Z,15.08
2022-10-04T17:02:55.147Z,15.04
2022-10-04T17:05:57.887Z,15.07
2022-10-04T17:08:50.053Z,15.10
2022-10-04T17:11:44.845Z,15.07
2022-10-04T17:14:43.382Z,15.03
2022-10-04T17:17:23.177Z,15.03
2022-10-04T17:19:57.625Z,15.06
2022-10-04T17:22:38.825Z,15.03
2022-10-04T17:25:22.468Z,15.06
2022-10-04T17:27:56.608Z,15.07
2022-10-04T17:30:28.202Z,15.11
2022-10-04T17:33:24.343Z,15.07
2022-10-04T17:36:07.244Z,14.98
2022-10-04T17:38:46.085Z,14.99
2022-10-04T17:41:25.106Z,15.00
2022-10-04T17:44:28.967Z,15.00
2022-10-04T17:47:03.129Z,15.05
2022-10-04T17:50:02.148Z,15.03
2022-10-04T17:52:53.243Z,15.07
2022-10-04T17:55:29.021Z,15.05
2022-10-04T17:58:04.218Z,15.04
2022-10-04T18:03:38.972Z,15.04
2022-10-04T18:06:18.727Z,15.05
2022-10-04T18:08:54.082Z,15.04
2022-10-04T18:11:31.648Z,15.03
2022-10-04T18:14:05.833Z,15.08
2022-10-04T18:16:48.623Z,15.03
2022-10-04T18:19:42.524Z,15.01
2022-10-04T18:22:15.755Z,15.02
2022-10-04T18:24:45.952Z,15.03
2022-10-04T18:27:19.675Z,15.08
2022-10-04T18:30:00.634Z,15.04
2022-10-04T18:32:38.096Z,15.10
2022-10-04T18:35:26.843Z,15.11
2022-10-04T18:37:57.908Z,15.10
2022-10-04T18:40:28.805Z,15.10
2022-10-04T18:42:58.872Z,15.14
2022-10-04T18:45:29.904Z,15.14
2022-10-04T18:48:00.492Z,15.07
2022-10-04T18:50:39.750Z,15.09
2022-10-04T18:53:23.726Z,15.11
2022-10-04T18:56:00.694Z,15.10
2022-10-04T18:58:59.243Z,15.14
2022-10-04T19:02:03.104Z,15.12
2022-10-04T19:04:45.492Z,15.13
2022-10-04T19:07:18.013Z,15.14
2022-10-04T19:10:00.335Z,15.23
2022-10-04T19:12:37.752Z,15.16
2022-10-04T19:15:16.978Z,15.20
2022-10-04T19:17:56.224Z,15.21
2022-10-04T19:20:33.182Z,15.19
2022-10-04T19:23:19.813Z,15.17
2022-10-04T19:26:17.667Z,15.24
2022-10-04T19:28:41.216Z,15.17
2022-10-04T19:31:19.012Z,15.15
2022-10-04T19:33:52.203Z,15.14
2022-10-04T19:36:46.912Z,15.18
2022-10-04T19:39:33.293Z,15.09
2022-10-04T19:42:04.764Z,15.20
2022-10-04T19:44:46.099Z,15.18
2022-10-04T19:47:25.747Z,15.17
2022-10-04T19:49:59.259Z,15.17
2022-10-04T19:52:37.715Z,15.14
2022-10-04T19:55:21.374Z,15.12
2022-10-04T19:57:52.555Z,15.20
2022-10-04T20:00:22.458Z,15.18
2022-10-04T20:02:52.017Z,15.20
2022-10-04T20:05:25.358Z,15.15
2022-10-04T20:07:57.486Z,15.18
2022-10-04T20:10:35.102Z,15.11
2022-10-04T20:13:25.640Z,15.17
2022-10-04T20:15:56.287Z,15.12
2022-10-04T20:19:01.394Z,15.09
2022-10-04T20:21:33.117Z,15.04
2022-10-04T20:24:01.842Z,15.09
2022-10-04T20:26:55.988Z,15.06
2022-10-04T20:30:06.795Z,15.08
2022-10-04T20:33:00.625Z,15.09
2022-10-04T20:36:01.030Z,15.05
2022-10-04T20:38:48.479Z,15.03
2022-10-04T20:42:20.068Z,15.06
2022-10-04T20:44:56.519Z,15.08
2022-10-04T20:47:35.013Z,15.04
2022-10-04T20:50:07.043Z,15.05
2022-10-04T20:52:38.190Z,15.06
2022-10-04T20:55:19.105Z,15.01
2022-10-04T20:57:47.594Z,15.06
2022-10-04T21:00:22.832Z,15.06
2022-10-04T21:02:51.488Z,15.05
2022-10-04T21:05:25.815Z,15.11
2022-10-04T21:08:29.519Z,14.92
2022-10-04T21:11:18.320Z,14.93
2022-10-04T21:13:58.972Z,14.93
2022-10-04T21:16:43.248Z,14.95
2022-10-04T21:19:45.384Z,14.96
2022-10-04T21:22:33.140Z,14.91
2022-10-04T21:25:03.182Z,14.98
2022-10-04T21:27:33.461Z,14.93
2022-10-04T21:30:02.945Z,14.95
2022-10-04T21:32:37.266Z,14.96
2022-10-04T21:35:07.182Z,14.95
2022-10-04T21:37:36.445Z,14.89
2022-10-04T21:40:05.316Z,14.85
2022-10-04T21:42:33.777Z,14.91
2022-10-04T21:45:01.853Z,14.95
2022-10-04T21:47:30.110Z,14.91
2022-10-04T21:49:59.977Z,14.94
2022-10-04T21:52:28.027Z,14.92
2022-10-04T21:54:56.251Z,14.92
2022-10-04T21:57:24.543Z,14.94
2022-10-04T21:59:52.949Z,14.96
2022-10-04T22:02:21.092Z,14.88
2022-10-04T22:04:49.709Z,14.84
2022-10-04T22:07:19.215Z,14.73
2022-10-04T22:09:47.288Z,14.71
2022-10-04T22:12:15.948Z,14.70
2022-10-04T22:14:44.319Z,14.69
2022-10-04T22:17:12.439Z,14.70
2022-10-04T22:19:42.618Z,14.70
2022-10-04T22:22:15.846Z,14.67
2022-10-04T22:24:46.002Z,14.68
2022-10-04T22:27:15.836Z,14.71
2022-10-04T22:29:44.213Z,14.74
2022-10-04T22:32:14.661Z,14.70
2022-10-04T22:34:43.372Z,14.70
2022-10-04T22:37:13.265Z,14.73
2022-10-04T22:39:41.630Z,14.80
2022-10-04T22:42:15.720Z,14.71
2022-10-04T22:44:44.165Z,14.73
2022-10-04T22:47:14.308Z,14.81
2022-10-04T22:49:44.816Z,14.69
2022-10-04T22:52:16.403Z,14.78
2022-10-04T22:54:46.552Z,14.82
2022-10-04T22:57:18.361Z,14.83
2022-10-04T22:59:48.801Z,14.86
2022-10-04T23:02:18.869Z,14.85
2022-10-04T23:04:52.614Z,14.79
2022-10-04T23:07:21.696Z,14.85
2022-10-04T23:09:50.667Z,14.82
2022-10-04T23:12:20.630Z,14.87
2022-10-04T23:14:48.782Z,14.84
2022-10-04T23:17:24.856Z,14.84
2022-10-04T23:19:55.386Z,14.88
2022-10-04T23:22:27.953Z,14.87
2022-10-04T23:24:57.151Z,14.89
2022-10-04T23:27:27.215Z,14.83
2022-10-04T23:30:00.225Z,14.83
2022-10-04T23:32:28.548Z,14.81
2022-10-04T23:34:57.171Z,14.80
2022-10-04T23:37:28.835Z,14.84
2022-10-04T23:39:57.444Z,14.78
2022-10-04T23:42:32.171Z,14.78
2022-10-04T23:45:02.524Z,14.77
2022-10-04T23:47:34.846Z,14.74
2022-10-04T23:50:05.784Z,14.73
2022-10-04T23:52:37.185Z,14.72
2022-10-04T23:55:15.926Z,14.68
2022-10-04T23:57:45.717Z,14.71
